MMMX/MEX METAR and TAF weather

Enter ICAO airport designator
Station Type Date Time Source
MMMX METAR 2021/08/01 16:48 UTC NOAA

MMMX 011648Z 28006KT 4SM SKC 20/11 A3044 NOSIG RMK HZY ISOL CU


Station Type Date Time Source
MMMX Decoded METAR 2021/08/01 16:48 UTC NOAA

Mexico City / Licenci, Mexico (MMMX) 19-26N 099-06W
Aug 01, 2021 - 12:48 PM EDT / 2021.08.01 1648 UTC
Wind: from the W (280 degrees) at 7 MPH (6 KT):0
Visibility: 4 mile(s):0
Sky conditions: clear
Temperature: 68 F (20 C)
Dew Point: 51 F (11 C)
Relative Humidity: 56%
Pressure (altimeter): 30.44 in. Hg (1030 hPa)
ob: MMMX 011648Z 28006KT 4SM SKC 20/11 A3044 NOSIG RMK HZY ISOL CU
cycle: 17

Station Type Date Time Source
MMMX TAF 2021/08/01 18:30 UTC NOAA

TAF MMMX 011727Z 0118/0224 32010KT 5SM HZ SCT025 BKN080 TX24/0121Z TN14/0212Z
TEMPO 0123/0203 4SM TSRA BKN020CB
FM020600 34006KT P6SM SCT020 BKN080
FM021800 02012KT P6SM SCT020 BKN080
FM022200 04012KT 5SM TSRA BKN020CB OVC080

Example: see airport list